| time (UTC) | temp F | wind direction | speed MPH | gust MPH | rain 1hr in | rain 24hr in | rain mn in | humidity % | barometer mb |
| 20260509100039 | 44 | 175 | 3.0 | 6.0 | 0.00 | 0.02 | 0.00 | 72 | 1005.7 |
| 20260509094545 | 44 | 170 | 4.0 | 6.0 | 0.00 | 0.02 | 0.00 | 71 | 1005.7 |
| 20260509093035 | 44 | 176 | 3.0 | 8.0 | 0.00 | 0.02 | 0.00 | 70 | 1005.8 |
| 20260509091534 | 44 | 183 | 4.0 | 7.0 | 0.00 | 0.02 | 0.00 | 69 | 1005.8 |
| 20260509090053 | 44 | 175 | 4.0 | 7.0 | 0.00 | 0.02 | 0.00 | 68 | 1005.8 |
| 20260509084534 | 44 | 175 | 4.0 | 8.0 | 0.00 | 0.02 | 0.00 | 68 | 1005.9 |
| 20260509083005 | 44 | 182 | 4.0 | 7.0 | 0.00 | 0.02 | 0.00 | 68 | 1005.9 |
| 20260509081601 | 44 | 172 | 5.0 | 8.0 | 0.00 | 0.02 | 0.00 | 67 | 1006.0 |
| 20260509080111 | 44 | 171 | 5.0 | 9.0 | 0.00 | 0.02 | 0.00 | 66 | 1006.2 |
| 20260509074555 | 43 | 178 | 3.0 | 7.0 | 0.00 | 0.02 | 0.00 | 67 | 1006.2 |
| 20260509073107 | 43 | 170 | 4.0 | 8.0 | 0.00 | 0.02 | 0.00 | 67 | 1006.3 |
| 20260509071553 | 43 | 169 | 5.0 | 8.0 | 0.00 | 0.02 | 0.00 | 66 | 1006.4 |
| 20260509070055 | 43 | 177 | 3.0 | 6.0 | 0.00 | 0.02 | 0.00 | 66 | 1006.6 |
| 20260509064546 | 43 | 178 | 3.0 | 6.0 | 0.00 | 0.03 | 0.00 | 65 | 1006.7 |
| 20260509063049 | 43 | 184 | 3.0 | 7.0 | 0.00 | 0.03 | 0.00 | 65 | 1006.9 |
| 20260509061541 | 43 | 184 | 2.0 | 5.0 | 0.00 | 0.03 | 0.00 | 66 | 1007.1 |
| 20260509060039 | 43 | 173 | 2.0 | 5.0 | 0.00 | 0.03 | 0.00 | 67 | 1007.2 |
| 20260509054535 | 42 | 178 | 3.0 | 5.0 | 0.00 | 0.03 | 0.00 | 69 | 1007.4 |
| 20260509053041 | 42 | 171 | 2.0 | 5.0 | 0.00 | 0.03 | 0.00 | 72 | 1007.6 |
| 20260509051531 | 42 | 174 | 1.0 | 3.0 | 0.00 | 0.03 | 0.00 | 71 | 1007.9 |
| 20260509050046 | 43 | 174 | 1.0 | 3.0 | 0.00 | 0.03 | 0.00 | 72 | 1008.0 |
| 20260509044522 | 43 | 174 | 1.0 | 4.0 | 0.00 | 0.03 | 0.00 | 72 | 1008.1 |
| 20260509043033 | 43 | 174 | 2.0 | 4.0 | 0.00 | 0.03 | 0.00 | 72 | 1008.2 |
| 20260509041518 | 44 | 183 | 3.0 | 5.0 | 0.00 | 0.03 | 0.00 | 73 | 1008.3 |
| 20260509040015 | 43 | 154 | 2.0 | 5.0 | 0.00 | 0.03 | 0.00 | 75 | 1008.4 |
| 20260509034543 | 43 | 145 | 2.0 | 3.0 | 0.00 | 0.04 | 0.03 | 77 | 1008.5 |
| 20260509033058 | 42 | 139 | 1.0 | 3.0 | 0.00 | 0.04 | 0.03 | 80 | 1008.5 |
| 20260509031540 | 42 | 138 | 1.0 | 2.0 | 0.00 | 0.04 | 0.03 | 81 | 1008.6 |
| 20260509030040 | 41 | 138 | 0.0 | 2.0 | 0.00 | 0.04 | 0.03 | 81 | 1008.7 |
| 20260509024541 | 42 | 138 | 0.0 | 2.0 | 0.00 | 0.07 | 0.03 | 80 | 1008.6 |
| 20260509023039 | 43 | 138 | 0.0 | 1.0 | 0.00 | 0.07 | 0.03 | 79 | 1008.6 |
| 20260509021536 | 44 | 138 | 0.0 | 1.0 | 0.00 | 0.07 | 0.03 | 78 | 1008.6 |
| 20260509020037 | 44 | 138 | 0.0 | 1.0 | 0.00 | 0.07 | 0.03 | 76 | 1008.6 |
| 20260509014535 | 45 | 138 | 0.0 | 0.0 | 0.00 | 0.09 | 0.03 | 74 | 1008.6 |
| 20260509013038 | 46 | 138 | 0.0 | 1.0 | 0.00 | 0.09 | 0.03 | 72 | 1008.6 |
| 20260509011507 | 48 | 138 | 0.0 | 2.0 | 0.00 | 0.09 | 0.03 | 71 | 1008.6 |
| 20260509010011 | 49 | 106 | 1.0 | 3.0 | 0.00 | 0.09 | 0.03 | 67 | 1008.5 |
| 20260509004500 | 50 | 90 | 0.0 | 1.0 | 0.00 | 0.10 | 0.03 | 64 | 1008.2 |
| 20260509003102 | 50 | 90 | 1.0 | 3.0 | 0.00 | 0.10 | 0.03 | 62 | 1008.0 |
| 20260509001600 | 52 | 84 | 2.0 | 7.0 | 0.00 | 0.10 | 0.03 | 59 | 1007.9 |
| 20260509000059 | 55 | 360 | 0.0 | 2.0 | 0.00 | 0.10 | 0.03 | 44 | 1007.8 |
| 20260508234557 | 55 | 360 | 0.0 | 2.0 | 0.00 | 0.10 | 0.03 | 45 | 1007.8 |
| 20260508233057 | 56 | 360 | 0.0 | 2.0 | 0.00 | 0.10 | 0.03 | 46 | 1007.8 |
| 20260508231557 | 56 | 5 | 2.0 | 5.0 | 0.00 | 0.10 | 0.03 | 47 | 1007.7 |
| 20260508230052 | 56 | 256 | 1.0 | 8.0 | 0.00 | 0.10 | 0.03 | 40 | 1007.7 |
| 20260508224607 | 56 | 209 | 1.0 | 6.0 | 0.00 | 0.10 | 0.03 | 41 | 1007.7 |
| 20260508223049 | 56 | 252 | 2.0 | 4.0 | 0.00 | 0.10 | 0.03 | 40 | 1007.7 |
| 20260508221555 | 56 | 291 | 2.0 | 8.0 | 0.00 | 0.10 | 0.03 | 41 | 1007.8 |
| 20260508220046 | 55 | 216 | 0.0 | 3.0 | 0.00 | 0.10 | 0.03 | 46 | 1007.8 |
| 20260508214547 | 56 | 216 | 1.0 | 3.0 | 0.00 | 0.10 | 0.03 | 43 | 1007.9 |
| 20260508213042 | 55 | 146 | 1.0 | 3.0 | 0.00 | 0.10 | 0.03 | 45 | 1007.9 |
| 20260508211547 | 55 | 244 | 1.0 | 4.0 | 0.00 | 0.10 | 0.03 | 45 | 1008.0 |
| 20260508210042 | 55 | 339 | 1.0 | 7.0 | 0.00 | 0.10 | 0.03 | 47 | 1008.0 |
| 20260508204537 | 55 | 146 | 2.0 | 5.0 | 0.00 | 0.10 | 0.03 | 54 | 1008.1 |
| 20260508203036 | 56 | 350 | 2.0 | 5.0 | 0.00 | 0.10 | 0.03 | 52 | 1008.2 |
| 20260508201537 | 55 | 285 | 1.0 | 6.0 | 0.00 | 0.10 | 0.03 | 50 | 1008.4 |
| 20260508200041 | 54 | 306 | 4.0 | 12.0 | 0.00 | 0.10 | 0.03 | 52 | 1008.7 |
| 20260508194526 | 54 | 355 | 6.0 | 14.0 | 0.00 | 0.10 | 0.03 | 57 | 1008.9 |
| 20260508193024 | 54 | 316 | 8.0 | 13.0 | 0.00 | 0.10 | 0.03 | 45 | 1009.0 |
| 20260508191523 | 54 | 290 | 6.0 | 11.0 | 0.00 | 0.10 | 0.03 | 52 | 1009.1 |
| 20260508190023 | 54 | 285 | 8.0 | 17.0 | 0.00 | 0.10 | 0.03 | 43 | 1009.1 |
| 20260508184526 | 54 | 306 | 8.0 | 13.0 | 0.00 | 0.10 | 0.03 | 43 | 1009.2 |
| 20260508183019 | 54 | 252 | 5.0 | 12.0 | 0.00 | 0.10 | 0.03 | 47 | 1009.1 |
| 20260508181517 | 53 | 243 | 3.0 | 16.0 | 0.00 | 0.10 | 0.03 | 45 | 1009.3 |
| 20260508180016 | 53 | 287 | 7.0 | 12.0 | 0.00 | 0.10 | 0.03 | 49 | 1009.4 |
| 20260508174511 | 53 | 302 | 5.0 | 12.0 | 0.00 | 0.10 | 0.03 | 49 | 1009.5 |
| 20260508173008 | 52 | 207 | 5.0 | 12.0 | 0.00 | 0.10 | 0.03 | 54 | 1009.6 |
| 20260508171509 | 52 | 273 | 6.0 | 14.0 | 0.00 | 0.10 | 0.03 | 58 | 1009.7 |
| 20260508170002 | 50 | 240 | 8.0 | 15.0 | 0.00 | 0.10 | 0.03 | 63 | 1009.9 |
| 20260508164601 | 51 | 239 | 4.0 | 11.0 | 0.00 | 0.10 | 0.03 | 63 | 1010.0 |
| 20260508163057 | 50 | 250 | 6.0 | 14.0 | 0.00 | 0.10 | 0.03 | 65 | 1010.2 |
| 20260508161554 | 49 | 258 | 5.0 | 9.0 | 0.00 | 0.10 | 0.03 | 65 | 1010.4 |
| 20260508160059 | 48 | 266 | 5.0 | 9.0 | 0.00 | 0.10 | 0.03 | 66 | 1010.5 |
| 20260508154552 | 48 | 249 | 4.0 | 13.0 | 0.00 | 0.10 | 0.03 | 62 | 1010.6 |
| 20260508153045 | 47 | 244 | 2.0 | 10.0 | 0.00 | 0.10 | 0.03 | 71 | 1010.6 |
| 20260508151546 | 46 | 291 | 5.0 | 9.0 | 0.00 | 0.10 | 0.03 | 76 | 1010.6 |
| 20260508150053 | 46 | 286 | 5.0 | 9.0 | 0.00 | 0.10 | 0.03 | 80 | 1010.6 |
| 20260508144545 | 45 | 192 | 6.0 | 8.0 | 0.00 | 0.10 | 0.03 | 84 | 1010.5 |
| 20260508143040 | 44 | 244 | 6.0 | 11.0 | 0.00 | 0.10 | 0.03 | 84 | 1010.5 |
| 20260508141530 | 44 | 209 | 3.0 | 9.0 | 0.00 | 0.10 | 0.03 | 86 | 1010.5 |
| 20260508140037 | 44 | 252 | 5.0 | 10.0 | 0.00 | 0.10 | 0.03 | 87 | 1010.3 |
| 20260508134530 | 43 | 217 | 5.0 | 9.0 | 0.00 | 0.10 | 0.03 | 88 | 1010.3 |
| 20260508133023 | 42 | 233 | 3.0 | 6.0 | 0.01 | 0.10 | 0.03 | 87 | 1010.5 |
| 20260508131522 | 42 | 239 | 3.0 | 8.0 | 0.01 | 0.10 | 0.03 | 87 | 1010.8 |
| 20260508130120 | 42 | 255 | 4.0 | 8.0 | 0.02 | 0.10 | 0.03 | 88 | 1010.6 |
| 20260508124521 | 41 | 261 | 3.0 | 9.0 | 0.02 | 0.10 | 0.03 | 88 | 1010.5 |
| 20260508123013 | 41 | 294 | 6.0 | 10.0 | 0.01 | 0.09 | 0.02 | 87 | 1010.5 |
| 20260508121517 | 42 | 286 | 5.0 | 13.0 | 0.01 | 0.09 | 0.02 | 87 | 1010.5 |
| 20260508120014 | 42 | 274 | 6.0 | 14.0 | 0.00 | 0.08 | 0.01 | 89 | 1010.4 |
| 20260508114523 | 42 | 273 | 6.0 | 9.0 | 0.00 | 0.08 | 0.01 | 92 | 1010.1 |
| 20260508113005 | 42 | 277 | 5.0 | 8.0 | 0.00 | 0.08 | 0.01 | 92 | 1009.6 |
| 20260508111504 | 42 | 266 | 3.0 | 7.0 | 0.00 | 0.08 | 0.01 | 93 | 1009.3 |
| 20260508110002 | 42 | 236 | 2.0 | 5.0 | 0.00 | 0.08 | 0.01 | 93 | 1009.1 |
| 20260508104604 | 41 | 228 | 1.0 | 3.0 | 0.00 | 0.08 | 0.01 | 93 | 1008.9 |
| 20260508103104 | 41 | 228 | 2.0 | 4.0 | 0.00 | 0.08 | 0.01 | 93 | 1009.0 |
| 20260508101553 | 41 | 228 | 0.0 | 3.0 | 0.00 | 0.08 | 0.01 | 93 | 1008.9 |